Time;durP1;ratioP1;P1;durP2;ratioP2;P2;SDS_P1;SDS_P2;PMS_P1;PMS_P2;Temp;Humidity;BMP_temperature;BMP_pressure;BME280_temperature;BME280_humidity;BME280_pressure;Samples;Min_cycle;Max_cycle;Signal;HPM_P1;HPM_P2
2021/12/13 00:01:15;;;;;;;0.10;0.10;;;;;;;10.87;65.79;100819.88;7366477;19;20047;-59
2021/12/13 00:03:50;;;;;;;0.10;0.10;;;;;;;10.87;65.60;100816.41;7359246;19;20006;-59
2021/12/13 00:06:22;;;;;;;0.00;0.00;;;;;;;10.86;65.96;100830.38;7360930;19;20329;-59
2021/12/13 00:08:52;;;;;;;0.00;0.00;;;;;;;10.82;65.64;100836.56;7358500;19;20350;-59
2021/12/13 00:11:31;;;;;;;0.10;0.10;;;;;;;10.77;65.57;100835.78;7366342;19;20332;-59
2021/12/13 00:14:28;;;;;;;0.00;0.00;;;;;;;10.72;65.46;100842.88;7358904;19;20041;-60
2021/12/13 00:16:58;;;;;;;;;;;;;;;10.64;65.65;100856.94;7263843;19;2004577;-60
2021/12/13 00:19:32;;;;;;;0.10;0.10;;;;;;;10.56;65.41;100866.69;7362962;19;22054;-60
2021/12/13 00:22:02;;;;;;;0.00;0.00;;;;;;;10.47;65.67;100872.06;7366091;19;20006;-59
2021/12/13 00:24:39;;;;;;;0.00;0.00;;;;;;;10.39;66.06;100871.34;7358476;19;20007;-59
2021/12/13 00:27:17;;;;;;;0.00;0.00;;;;;;;10.25;66.08;100874.25;7359090;19;20006;-60
2021/12/13 00:29:51;;;;;;;0.00;0.00;;;;;;;10.22;66.10;100886.44;7365752;19;20013;-60
2021/12/13 00:32:28;;;;;;;0.00;0.00;;;;;;;10.14;66.58;100882.25;7363010;19;20024;-59
2021/12/13 00:35:00;;;;;;;0.00;0.00;;;;;;;10.06;66.61;100889.34;7361282;19;20791;-60
2021/12/13 00:37:33;;;;;;;0.00;0.00;;;;;;;9.67;66.98;100837.84;7365380;19;20018;-60
2021/12/13 00:40:12;;;;;;;0.05;0.05;;;;;;;9.96;66.81;100906.03;7363479;19;20085;-60
2021/12/13 00:42:42;;;;;;;0.00;0.00;;;;;;;9.91;67.47;100913.06;7363927;19;20679;-60
2021/12/13 00:45:11;;;;;;;0.00;0.00;;;;;;;9.84;67.66;100908.84;7359898;19;20025;-59
2021/12/13 00:47:38;;;;;;;0.00;0.00;;;;;;;9.81;67.73;100920.19;7364881;19;20506;-60
2021/12/13 00:50:11;;;;;;;0.00;0.00;;;;;;;9.77;67.68;100922.88;7360673;19;20006;-59
2021/12/13 00:52:39;;;;;;;0.00;0.00;;;;;;;9.73;67.99;100931.63;7364358;19;20090;-60
2021/12/13 00:55:21;;;;;;;0.00;0.00;;;;;;;9.73;67.46;100929.00;7361969;19;20047;-60
2021/12/13 00:57:52;;;;;;;0.00;0.00;;;;;;;9.70;68.09;100919.50;7364809;19;20018;-59
2021/12/13 01:00:25;;;;;;;0.00;0.00;;;;;;;9.66;67.85;100910.00;7360134;19;20096;-59
2021/12/13 01:03:02;;;;;;;0.00;0.00;;;;;;;9.66;67.85;100903.91;7364625;19;20017;-60
2021/12/13 01:05:27;;;;;;;0.00;0.00;;;;;;;9.64;68.33;100906.56;7360720;19;20010;-60
2021/12/13 01:08:16;;;;;;;0.00;0.00;;;;;;;9.64;68.09;100917.00;7364522;19;20027;-59
2021/12/13 01:10:54;;;;;;;0.10;0.10;;;;;;;9.62;68.43;100924.81;7257144;19;2004420;-59
2021/12/13 01:13:23;;;;;;;0.08;0.08;;;;;;;9.57;68.47;100905.78;7363905;19;20029;-60
2021/12/13 01:15:59;;;;;;;0.00;0.00;;;;;;;9.55;68.01;100923.19;7352501;19;20383;-59
2021/12/13 01:18:45;;;;;;;0.00;0.00;;;;;;;9.51;68.40;100947.59;7359875;19;20537;-59
2021/12/13 01:21:38;;;;;;;0.00;0.00;;;;;;;9.46;68.74;100959.81;7360723;19;20033;-59
2021/12/13 01:24:15;;;;;;;0.00;0.00;;;;;;;9.43;68.74;100948.56;7255602;19;2004439;-60
2021/12/13 01:26:48;;;;;;;0.00;0.00;;;;;;;9.39;69.01;100955.59;7359034;19;20034;-59
2021/12/13 01:29:25;;;;;;;0.00;0.00;;;;;;;9.35;68.97;100951.28;7358303;19;20129;-60
2021/12/13 01:32:04;;;;;;;0.00;0.00;;;;;;;9.33;69.28;100969.56;7363030;19;20007;-59
2021/12/13 01:34:33;;;;;;;0.00;0.00;;;;;;;9.31;69.00;100973.06;7359771;19;20039;-59
2021/12/13 01:37:10;;;;;;;0.00;0.00;;;;;;;9.29;69.26;100982.66;7362917;19;20046;-60
2021/12/13 01:39:39;;;;;;;0.00;0.00;;;;;;;9.28;69.51;100996.56;7361642;19;20361;-60
2021/12/13 01:42:13;;;;;;;0.00;0.00;;;;;;;9.27;69.10;101005.25;7361111;19;20017;-59
2021/12/13 01:44:46;;;;;;;0.03;0.03;;;;;;;9.26;69.49;101009.59;7358743;19;20021;-60
2021/12/13 01:47:31;;;;;;;0.08;0.08;;;;;;;9.26;69.07;101008.75;7363819;19;20010;-59
2021/12/13 01:50:21;;;;;;;0.00;0.00;;;;;;;9.25;69.09;101007.88;7361941;19;20006;-59
2021/12/13 01:52:51;;;;;;;0.10;0.10;;;;;;;9.23;69.76;101011.41;7359923;19;20014;-59
2021/12/13 01:55:21;;;;;;;0.00;0.00;;;;;;;9.23;69.57;101000.97;7358843;19;20884;-60
2021/12/13 01:57:53;;;;;;;0.00;0.00;;;;;;;9.20;69.63;101007.06;7359013;19;20018;-60
2021/12/13 02:00:32;;;;;;;0.00;0.00;;;;;;;9.20;69.69;101004.47;7357698;19;20479;-59
2021/12/13 02:02:58;;;;;;;0.00;0.00;;;;;;;9.19;69.71;101013.19;7362263;19;20027;-59
2021/12/13 02:05:28;;;;;;;0.10;0.10;;;;;;;9.20;69.54;101022.72;7357149;19;20014;-60
2021/12/13 02:08:10;;;;;;;0.10;0.10;;;;;;;9.21;69.64;101026.19;7363038;19;20018;-60
2021/12/13 02:10:38;;;;;;;0.00;0.00;;;;;;;9.19;69.88;101038.38;7358639;19;20089;-60
2021/12/13 02:13:07;;;;;;;0.10;0.10;;;;;;;9.19;69.58;101043.59;7362559;19;20562;-59
2021/12/13 02:18:26;;;;;;;0.10;0.10;;;;;;;9.18;70.11;101041.88;7261952;19;2004404;-60
2021/12/13 02:21:05;;;;;;;0.00;0.00;;;;;;;9.18;69.83;101057.50;7357588;19;20025;-60
2021/12/13 02:23:34;;;;;;;0.00;0.00;;;;;;;9.16;69.84;101056.63;7360392;19;20013;-59
2021/12/13 02:25:59;;;;;;;0.10;0.10;;;;;;;9.13;69.62;101060.16;7357820;19;20040;-59
2021/12/13 02:28:33;;;;;;;0.10;0.10;;;;;;;9.18;70.18;101065.31;7359539;19;20074;-60
2021/12/13 02:31:19;;;;;;;0.00;0.00;;;;;;;9.18;69.56;101060.09;7361657;19;20014;-59
2021/12/13 02:33:51;;;;;;;0.00;0.00;;;;;;;9.18;70.09;101060.09;7358110;19;20014;-59
2021/12/13 02:36:30;;;;;;;0.10;0.10;;;;;;;9.17;69.84;101077.44;7359580;19;20023;-60
2021/12/13 02:39:00;;;;;;;0.00;0.00;;;;;;;9.09;69.91;101067.13;7360871;19;20011;-60
2021/12/13 02:41:29;;;;;;;0.00;0.00;;;;;;;9.16;69.98;101086.16;7359310;19;20017;-60
2021/12/13 02:44:05;;;;;;;0.00;0.00;;;;;;;9.15;70.18;101083.56;7360097;19;20131;-60
2021/12/13 02:46:32;;;;;;;0.00;0.00;;;;;;;9.14;70.14;101080.09;7360213;19;20022;-60
2021/12/13 02:49:02;;;;;;;0.00;0.00;;;;;;;9.15;69.97;101062.72;7360919;19;20027;-59
2021/12/13 02:51:34;;;;;;;0.00;0.00;;;;;;;9.14;69.98;101071.44;7360935;19;20034;-60
2021/12/13 02:54:23;;;;;;;0.10;0.10;;;;;;;9.14;70.18;101072.28;7357235;19;20037;-59
2021/12/13 02:57:15;;;;;;;0.10;0.10;;;;;;;9.13;69.94;101073.19;7367322;19;20018;-59
2021/12/13 02:59:46;;;;;;;0.00;0.00;;;;;;;9.12;70.09;101067.97;7254332;19;2004385;-60
2021/12/13 03:02:26;;;;;;;0.00;0.00;;;;;;;9.12;69.84;101060.16;7364842;19;20030;-59
2021/12/13 03:04:52;;;;;;;0.10;0.10;;;;;;;9.07;70.26;101061.09;7368569;19;20009;-60
2021/12/13 03:07:26;;;;;;;0.00;0.00;;;;;;;9.08;70.25;101068.00;7369572;19;20768;-59
2021/12/13 03:09:54;;;;;;;0.00;0.00;;;;;;;9.06;70.01;101068.91;7369797;19;20017;-60
2021/12/13 03:12:22;;;;;;;0.00;0.00;;;;;;;8.98;70.51;101071.59;7363814;19;20018;-59
2021/12/13 03:14:59;;;;;;;0.00;0.00;;;;;;;9.04;70.06;101083.69;7363485;19;20455;-59
2021/12/13 03:17:56;;;;;;;0.00;0.00;;;;;;;9.02;70.12;101088.94;7366401;19;20043;-59
2021/12/13 03:20:43;;;;;;;0.10;0.10;;;;;;;9.00;70.38;101101.09;7267129;19;2004292;-59
2021/12/13 03:23:32;;;;;;;0.00;0.00;;;;;;;9.00;70.38;101084.59;7367454;19;20022;-59
2021/12/13 03:26:06;;;;;;;0.00;0.00;;;;;;;8.99;70.94;101081.13;7366995;19;20009;-59
2021/12/13 03:29:00;;;;;;;0.00;0.00;;;;;;;8.99;70.48;101086.34;7364422;19;20018;-59
2021/12/13 03:31:34;;;;;;;0.03;0.03;;;;;;;8.96;70.74;101083.75;7265526;19;2004364;-60
2021/12/13 03:34:05;;;;;;;0.00;0.00;;;;;;;8.98;70.57;101089.81;7363400;19;20049;-60
2021/12/13 03:37:00;;;;;;;0.00;0.00;;;;;;;8.99;70.74;101101.97;7365880;19;20015;-60
2021/12/13 03:39:32;;;;;;;0.00;0.00;;;;;;;8.97;70.84;101101.13;7261264;19;2004457;-60
2021/12/13 03:42:01;;;;;;;0.00;0.00;;;;;;;8.98;70.65;101108.06;7365531;19;20022;-60
2021/12/13 03:44:37;;;;;;;0.00;0.00;;;;;;;9.00;70.47;101110.66;7365760;19;20042;-59
2021/12/13 03:47:09;;;;;;;0.00;0.00;;;;;;;8.99;70.58;101096.75;7355371;19;20782;-60
2021/12/13 03:49:40;;;;;;;0.05;0.05;;;;;;;8.97;70.60;101108.94;7367284;19;20017;-60
2021/12/13 03:52:09;;;;;;;0.00;0.00;;;;;;;8.99;70.79;101115.00;7362368;19;21050;-59
2021/12/13 03:54:40;;;;;;;0.00;0.00;;;;;;;9.00;70.66;101100.22;7367991;19;20014;-60
2021/12/13 03:57:08;;;;;;;0.00;0.00;;;;;;;8.89;70.93;101092.50;7363065;19;20014;-59
2021/12/13 03:59:39;;;;;;;0.00;0.00;;;;;;;9.00;70.71;101111.50;7361963;19;20010;-60
2021/12/13 04:02:09;;;;;;;0.00;0.00;;;;;;;9.00;70.64;101108.91;7364170;19;20014;-60
2021/12/13 04:04:40;;;;;;;0.00;0.00;;;;;;;8.98;70.62;101110.66;7366545;19;20010;-60
2021/12/13 04:07:19;;;;;;;0.00;0.00;;;;;;;9.00;71.05;101123.66;7354639;19;20018;-60
2021/12/13 04:09:48;;;;;;;0.00;0.00;;;;;;;8.98;71.17;101113.28;7364795;19;20639;-60
2021/12/13 04:12:16;;;;;;;0.00;0.00;;;;;;;8.99;71.02;101115.00;7357498;19;20031;-59
2021/12/13 04:14:52;;;;;;;0.00;0.00;;;;;;;9.00;70.93;101127.13;7360527;19;20014;-59
2021/12/13 04:17:58;;;;;;;0.00;0.00;;;;;;;9.01;70.99;101128.00;7365530;19;20011;-59
2021/12/13 04:20:28;;;;;;;0.00;0.00;;;;;;;8.99;71.40;101130.63;7262943;19;2004372;-60
2021/12/13 04:23:00;;;;;;;0.03;0.03;;;;;;;8.99;70.93;101135.84;7362210;19;20019;-60
2021/12/13 04:25:31;;;;;;;0.00;0.00;;;;;;;9.00;71.04;101127.13;7364811;19;20038;-60
2021/12/13 04:28:02;;;;;;;0.00;0.00;;;;;;;8.95;70.89;101134.13;7366488;19;20456;-59
2021/12/13 04:30:35;;;;;;;0.00;0.00;;;;;;;9.00;70.96;101140.16;7365501;19;20006;-59
2021/12/13 04:33:08;;;;;;;0.00;0.00;;;;;;;9.00;70.88;101147.97;7366323;19;20014;-59
2021/12/13 04:35:34;;;;;;;0.00;0.00;;;;;;;8.98;70.70;101154.09;7369584;19;20010;-59
2021/12/13 04:38:04;;;;;;;0.10;0.00;;;;;;;8.96;71.06;101151.47;7366077;19;20017;-60
2021/12/13 04:40:34;;;;;;;0.10;0.10;;;;;;;8.94;70.80;101158.44;7365823;19;20462;-59
2021/12/13 04:43:13;;;;;;;0.00;0.00;;;;;;;8.94;71.13;101158.44;7368775;19;20014;-59
2021/12/13 04:45:42;;;;;;;0.05;0.05;;;;;;;8.93;70.92;101159.34;7367253;19;20081;-60
2021/12/13 04:48:18;;;;;;;0.00;0.00;;;;;;;8.92;71.21;101155.00;7365279;19;20018;-59
2021/12/13 04:51:01;;;;;;;0.10;0.10;;;;;;;8.91;71.39;101168.03;7369244;19;20007;-59
2021/12/13 04:53:33;;;;;;;0.00;0.00;;;;;;;8.90;71.33;101176.72;7368641;19;20404;-60
2021/12/13 04:56:01;;;;;;;0.00;0.00;;;;;;;8.89;71.48;101175.84;7369910;19;20015;-60
2021/12/13 04:58:28;;;;;;;0.00;0.00;;;;;;;8.88;71.41;101173.28;7369320;19;20048;-60
2021/12/13 05:00:58;;;;;;;0.00;0.00;;;;;;;8.78;71.36;101162.94;7368211;19;20010;-59
2021/12/13 05:03:32;;;;;;;0.00;0.00;;;;;;;8.88;71.48;101176.75;7370762;19;20017;-59
2021/12/13 05:06:00;;;;;;;0.00;0.00;;;;;;;8.87;72.04;101180.22;7364684;19;20031;-60
2021/12/13 05:08:27;;;;;;;0.00;0.00;;;;;;;8.81;71.80;101167.22;7368913;19;20817;-59
2021/12/13 05:10:53;;;;;;;0.00;0.00;;;;;;;8.87;71.49;101181.94;7369735;19;20329;-60
2021/12/13 05:13:26;;;;;;;0.00;0.00;;;;;;;8.91;71.64;101184.50;7367991;19;20014;-60
2021/12/13 05:16:07;;;;;;;0.05;0.05;;;;;;;8.88;71.55;101179.34;7369245;19;20459;-59
2021/12/13 05:18:33;;;;;;;0.10;0.10;;;;;;;8.79;71.60;101176.81;7367458;19;20006;-59
2021/12/13 05:21:05;;;;;;;0.00;0.00;;;;;;;8.92;71.50;101194.06;7362529;19;20031;-60
2021/12/13 05:23:33;;;;;;;0.00;0.00;;;;;;;8.90;71.51;101182.78;7367549;19;20018;-59
2021/12/13 05:26:03;;;;;;;0.00;0.00;;;;;;;8.91;71.64;101187.13;7370328;19;20014;-59
2021/12/13 05:28:44;;;;;;;0.00;0.00;;;;;;;8.92;71.29;101181.06;7367229;19;20022;-59
2021/12/13 05:31:18;;;;;;;0.10;0.10;;;;;;;8.81;71.98;101169.84;7368233;19;21098;-60
2021/12/13 05:33:45;;;;;;;0.00;0.00;;;;;;;8.80;71.40;101170.72;7367837;19;20110;-59
2021/12/13 05:36:19;;;;;;;0.00;0.00;;;;;;;8.88;71.67;101184.56;7364315;19;20030;-60
2021/12/13 05:38:48;;;;;;;0.10;0.10;;;;;;;8.94;71.75;101200.13;7362763;19;20481;-59
2021/12/13 05:41:21;;;;;;;0.00;0.00;;;;;;;8.95;71.48;101211.41;7368370;19;20022;-59
2021/12/13 05:43:50;;;;;;;0.00;0.00;;;;;;;8.94;71.42;101209.69;7362135;19;20010;-59
2021/12/13 05:46:20;;;;;;;0.00;0.00;;;;;;;8.94;71.68;101220.97;7368811;19;20018;-59
2021/12/13 05:48:50;;;;;;;0.00;0.00;;;;;;;8.93;71.52;101229.66;7365800;19;20010;-60
2021/12/13 05:51:28;;;;;;;0.10;0.10;;;;;;;8.95;71.32;101243.53;7366879;19;20010;-59
2021/12/13 05:53:59;;;;;;;0.00;0.00;;;;;;;8.94;71.62;101241.81;7365709;19;20023;-60
2021/12/13 05:56:32;;;;;;;0.00;0.00;;;;;;;8.95;71.39;101240.91;7363968;19;20046;-60
2021/12/13 05:59:37;;;;;;;0.00;0.00;;;;;;;8.91;71.46;101226.19;7364754;19;20010;-59
2021/12/13 06:02:16;;;;;;;0.00;0.00;;;;;;;8.93;71.51;101245.28;7262304;19;2004402;-59
2021/12/13 06:05:03;;;;;;;0.10;0.10;;;;;;;8.96;71.63;101244.38;7368311;19;20021;-59
2021/12/13 06:07:34;;;;;;;0.00;0.00;;;;;;;8.95;71.79;101253.94;7360415;19;20017;-60
2021/12/13 06:10:06;;;;;;;0.00;0.00;;;;;;;8.93;71.68;101254.84;7367480;19;20052;-59
2021/12/13 06:12:55;;;;;;;0.00;0.00;;;;;;;8.96;71.44;101260.00;7365740;19;20022;-59
2021/12/13 06:15:27;;;;;;;0.00;0.00;;;;;;;8.95;71.54;101253.94;7367662;19;20426;-59
2021/12/13 06:18:04;;;;;;;0.00;0.00;;;;;;;8.95;71.39;101248.72;7364580;19;20014;-60
2021/12/13 06:20:41;;;;;;;0.00;0.00;;;;;;;8.94;71.74;101247.00;7366084;19;20011;-59
2021/12/13 06:23:22;;;;;;;0.00;0.00;;;;;;;8.94;71.92;101248.75;7366630;19;20019;-59
2021/12/13 06:25:53;;;;;;;0.00;0.00;;;;;;;8.96;71.82;101250.47;7366744;19;20009;-59
2021/12/13 06:28:33;;;;;;;0.00;0.00;;;;;;;8.99;71.82;101246.97;7364333;19;20455;-60
2021/12/13 06:31:12;;;;;;;0.00;0.00;;;;;;;8.99;71.73;101249.59;7362783;19;20014;-59
2021/12/13 06:33:58;;;;;;;0.00;0.00;;;;;;;9.00;71.61;101246.97;7366027;19;20455;-59
2021/12/13 06:36:32;;;;;;;0.00;0.00;;;;;;;9.00;71.74;101241.75;7367831;19;20391;-60
2021/12/13 06:39:00;;;;;;;0.00;0.00;;;;;;;8.97;71.36;101236.59;7365253;19;20003;-59
2021/12/13 06:41:28;;;;;;;0.00;0.00;;;;;;;9.01;71.80;101240.88;7354745;19;20014;-59
2021/12/13 06:44:17;;;;;;;0.00;0.00;;;;;;;9.02;71.46;101237.41;7365247;19;20166;-59
2021/12/13 06:47:01;;;;;;;0.00;0.00;;;;;;;9.02;71.53;101245.22;7259123;19;2004498;-59
2021/12/13 06:49:35;;;;;;;0.10;0.10;;;;;;;9.03;71.68;101252.16;7363387;19;20006;-59
2021/12/13 06:52:05;;;;;;;0.00;0.00;;;;;;;9.01;71.53;101253.88;7362950;19;20023;-59
2021/12/13 06:54:47;;;;;;;0.00;0.00;;;;;;;9.05;71.30;101254.75;7364454;19;20461;-59
2021/12/13 06:57:17;;;;;;;0.00;0.00;;;;;;;9.03;71.62;101257.38;7363174;19;20018;-59
2021/12/13 06:59:55;;;;;;;0.03;0.03;;;;;;;9.05;71.41;101258.22;7361276;19;20035;-59
2021/12/13 07:02:51;;;;;;;0.10;0.10;;;;;;;9.08;71.58;101253.00;7367299;19;20014;-60
2021/12/13 07:05:21;;;;;;;0.10;0.10;;;;;;;9.07;71.61;101243.44;7264249;19;2004040;-59
2021/12/13 07:07:53;;;;;;;0.00;0.00;;;;;;;9.08;71.61;101233.88;7360832;19;20343;-59
2021/12/13 07:10:33;;;;;;;0.00;0.00;;;;;;;9.00;71.79;101210.50;7365173;19;20363;-60
2021/12/13 07:13:42;;;;;;;0.00;0.00;;;;;;;9.03;71.39;101215.69;7363468;19;20010;-59
2021/12/13 07:16:16;;;;;;;0.00;0.00;;;;;;;9.08;71.66;101239.97;7258626;19;2005443;-60
2021/12/13 07:18:55;;;;;;;0.00;0.00;;;;;;;9.08;71.56;101245.16;7365732;19;20011;-59
2021/12/13 07:21:25;;;;;;;0.00;0.00;;;;;;;9.05;71.53;101239.97;7358577;19;20043;-59
2021/12/13 07:24:05;;;;;;;0.00;0.00;;;;;;;9.07;71.43;101255.59;7365661;19;20678;-59
2021/12/13 07:26:30;;;;;;;0.00;0.00;;;;;;;9.05;71.57;101266.03;7361528;19;20011;-59
2021/12/13 07:28:58;;;;;;;0.00;0.00;;;;;;;9.04;71.63;101264.31;7360268;19;20592;-59
2021/12/13 07:31:23;;;;;;;0.05;0.05;;;;;;;9.00;71.16;101272.16;7364292;19;20620;-60
2021/12/13 07:33:49;;;;;;;0.00;0.00;;;;;;;9.04;71.39;101290.34;7364592;19;20012;-60
2021/12/13 07:36:28;;;;;;;0.00;0.00;;;;;;;8.93;71.43;101266.13;7361705;19;20028;-60
2021/12/13 07:39:00;;;;;;;0.10;0.10;;;;;;;8.89;71.74;101269.63;7359673;19;20017;-59
2021/12/13 07:41:39;;;;;;;0.10;0.10;;;;;;;9.04;71.80;101305.13;7366660;19;20021;-59
2021/12/13 07:44:05;;;;;;;0.00;0.00;;;;;;;9.03;71.73;101309.47;7363744;19;20640;-59
2021/12/13 07:46:32;;;;;;;0.00;0.00;;;;;;;8.96;71.90;101302.56;7366214;19;20010;-59
2021/12/13 07:49:10;;;;;;;0.00;0.00;;;;;;;9.07;71.92;101321.59;7366940;19;20467;-59
2021/12/13 07:51:46;;;;;;;0.00;0.00;;;;;;;9.06;71.62;101319.00;7367303;19;20011;-59
2021/12/13 07:54:16;;;;;;;0.00;0.00;;;;;;;9.07;71.88;101325.94;7369084;19;20022;-59
2021/12/13 07:56:50;;;;;;;0.10;0.10;;;;;;;9.04;71.70;101319.00;7369191;19;20428;-59
2021/12/13 07:59:29;;;;;;;0.00;0.00;;;;;;;9.08;71.61;101327.69;7360786;19;20010;-59
2021/12/13 08:02:10;;;;;;;0.10;0.10;;;;;;;9.07;71.78;101328.53;7364702;19;20003;-59
2021/12/13 08:04:41;;;;;;;0.00;0.00;;;;;;;9.09;71.42;101339.81;7369604;19;20078;-60
2021/12/13 08:07:26;;;;;;;0.00;0.00;;;;;;;9.06;71.60;101335.47;7369168;19;20380;-59
2021/12/13 08:09:53;;;;;;;0.00;0.00;;;;;;;9.07;71.72;101347.66;7366472;19;20010;-60
2021/12/13 08:12:21;;;;;;;0.00;0.00;;;;;;;9.03;71.73;101343.34;7370121;19;20031;-59
2021/12/13 08:14:49;;;;;;;0.05;0.05;;;;;;;9.03;71.53;101345.06;7362279;19;20035;-59
2021/12/13 08:17:18;;;;;;;;;;;;;;;9.05;71.57;101352.00;7341451;19;20014;-59
2021/12/13 08:19:52;;;;;;;0.00;0.00;;;;;;;9.03;71.91;101355.50;7360165;19;19914;-59
2021/12/13 08:22:20;;;;;;;0.00;0.00;;;;;;;9.00;71.67;101372.00;7364727;19;20021;-59
2021/12/13 08:24:48;;;;;;;0.00;0.00;;;;;;;9.00;71.90;101378.94;7364100;19;20006;-59
2021/12/13 08:27:26;;;;;;;0.05;0.05;;;;;;;9.00;71.52;101385.03;7370110;19;20006;-59
2021/12/13 08:30:07;;;;;;;0.00;0.00;;;;;;;8.97;71.54;101377.25;7368542;19;20018;-59
2021/12/13 08:32:33;;;;;;;0.00;0.00;;;;;;;8.94;71.49;101382.47;7366694;19;20010;-59
2021/12/13 08:35:01;;;;;;;0.00;0.00;;;;;;;8.92;71.88;101384.22;7363053;19;20014;-59
2021/12/13 08:37:36;;;;;;;0.10;0.10;;;;;;;8.93;72.21;101396.34;7367313;19;20010;-59
2021/12/13 08:40:13;;;;;;;0.00;0.00;;;;;;;8.93;72.05;101396.34;7365448;19;20017;-59
2021/12/13 08:42:41;;;;;;;0.00;0.00;;;;;;;8.92;71.83;101389.44;7367415;19;20010;-59
2021/12/13 08:45:19;;;;;;;0.10;0.10;;;;;;;8.93;71.61;101391.16;7361128;19;20565;-60
2021/12/13 08:47:57;;;;;;;0.00;0.00;;;;;;;8.90;71.95;101396.38;7368820;19;20041;-59
2021/12/13 08:50:30;;;;;;;0.10;0.10;;;;;;;8.88;72.12;101405.94;7362644;19;20010;-59
2021/12/13 08:53:04;;;;;;;0.00;0.00;;;;;;;8.91;71.94;101418.94;7367302;19;20014;-59
2021/12/13 08:55:43;;;;;;;0.00;0.00;;;;;;;8.91;72.45;101421.53;7359265;19;20010;-59
2021/12/13 08:58:18;;;;;;;0.00;0.00;;;;;;;8.79;72.34;101398.16;7355773;19;20011;-59
2021/12/13 09:01:07;;;;;;;0.10;0.10;;;;;;;8.92;72.34;101436.31;7360563;19;20024;-59
2021/12/13 09:03:41;;;;;;;0.10;0.10;;;;;;;8.94;71.92;101428.47;7368014;19;20078;-59
2021/12/13 09:06:33;;;;;;;0.08;0.08;;;;;;;8.95;71.78;101430.19;7362444;19;20002;-59
2021/12/13 09:09:07;;;;;;;0.00;0.00;;;;;;;8.93;72.18;101438.03;7258237;19;2004378;-59
2021/12/13 09:11:44;;;;;;;0.10;0.10;;;;;;;8.94;72.25;101438.91;7366024;19;20002;-59
2021/12/13 09:14:23;;;;;;;0.00;0.00;;;;;;;8.98;72.09;101436.28;7361489;19;20025;-59
2021/12/13 09:17:06;;;;;;;0.00;0.00;;;;;;;8.98;72.44;101435.41;7356015;19;20013;-59
2021/12/13 09:19:40;;;;;;;0.05;0.05;;;;;;;8.98;72.23;101440.63;7366531;19;20006;-59
2021/12/13 09:22:16;;;;;;;0.10;0.10;;;;;;;9.00;72.49;101439.72;7364613;19;20014;-60
2021/12/13 09:24:47;;;;;;;0.00;0.00;;;;;;;9.02;72.58;101442.31;7366180;19;20641;-60
2021/12/13 09:27:18;;;;;;;0.00;0.00;;;;;;;9.02;72.82;101443.22;7358152;19;20007;-60
2021/12/13 09:29:59;;;;;;;0.00;0.00;;;;;;;9.04;72.64;101446.66;7362917;19;20010;-59
2021/12/13 09:32:35;;;;;;;0.00;0.00;;;;;;;9.01;72.52;101441.47;7364218;19;20017;-59
2021/12/13 09:35:18;;;;;;;0.00;0.00;;;;;;;9.07;72.10;101451.88;7362451;19;20015;-59
2021/12/13 09:37:44;;;;;;;0.00;0.00;;;;;;;8.97;72.58;101439.75;7359935;19;20010;-59
2021/12/13 09:40:10;;;;;;;0.10;0.10;;;;;;;9.07;71.84;101451.88;7362018;19;20022;-60
2021/12/13 09:42:48;;;;;;;0.00;0.00;;;;;;;9.11;72.20;101452.69;7362016;19;20014;-59
2021/12/13 09:45:22;;;;;;;0.00;0.00;;;;;;;9.12;72.05;101444.00;7359848;19;20045;-59
2021/12/13 09:47:48;;;;;;;0.00;0.00;;;;;;;9.09;71.97;101444.91;7355787;19;20014;-59
2021/12/13 09:50:18;;;;;;;0.00;0.00;;;;;;;9.12;72.14;101437.94;7362377;19;20038;-59
2021/12/13 09:52:57;;;;;;;0.00;0.00;;;;;;;9.13;71.83;101450.97;7361420;19;20467;-59
2021/12/13 09:55:35;;;;;;;0.00;0.00;;;;;;;9.13;72.17;101455.31;7360824;19;20353;-59
2021/12/13 09:58:05;;;;;;;0.00;0.00;;;;;;;9.12;72.31;101458.78;7353222;19;20354;-59
2021/12/13 10:00:41;;;;;;;0.00;0.00;;;;;;;9.14;72.46;101441.41;7361113;19;20010;-60
2021/12/13 10:03:20;;;;;;;0.10;0.10;;;;;;;9.21;72.55;101456.13;7356327;19;20022;-59
2021/12/13 10:05:49;;;;;;;0.00;0.00;;;;;;;9.22;71.96;101455.25;7359045;19;20009;-59
2021/12/13 10:08:26;;;;;;;0.05;0.05;;;;;;;9.25;71.95;101456.13;7358003;19;20029;-59
2021/12/13 10:10:58;;;;;;;0.00;0.00;;;;;;;9.25;72.01;101460.47;7362205;19;20007;-59
2021/12/13 10:13:36;;;;;;;0.00;0.00;;;;;;;9.28;72.02;101463.94;7365762;19;20010;-59
2021/12/13 10:16:26;;;;;;;0.10;0.10;;;;;;;9.32;71.70;101472.56;7359038;19;20015;-59
2021/12/13 10:18:52;;;;;;;0.00;0.00;;;;;;;9.29;71.89;101462.19;7359420;19;20684;-60
2021/12/13 10:21:22;;;;;;;0.00;0.00;;;;;;;9.33;71.89;101474.34;7360006;19;20030;-59
2021/12/13 10:23:57;;;;;;;0.10;0.10;;;;;;;9.37;72.23;101465.59;7354309;19;20018;-59
2021/12/13 10:26:29;;;;;;;0.00;0.00;;;;;;;9.26;72.25;101446.56;7354006;19;20494;-59
2021/12/13 10:28:57;;;;;;;0.00;0.00;;;;;;;9.44;72.66;101471.66;7362951;19;20017;-59
2021/12/13 10:31:45;;;;;;;0.10;0.10;;;;;;;9.33;72.31;101443.06;7356373;19;20141;-59
2021/12/13 10:34:19;;;;;;;0.00;0.00;;;;;;;9.54;72.52;101468.13;7363454;19;20077;-59
2021/12/13 10:36:54;;;;;;;0.10;0.10;;;;;;;9.57;72.55;101465.47;7361109;19;20011;-59
2021/12/13 10:39:24;;;;;;;0.08;0.08;;;;;;;9.60;72.74;101479.38;7364911;19;20033;-59
2021/12/13 10:41:53;;;;;;;0.00;0.00;;;;;;;9.65;72.23;101478.50;7362542;19;20011;-60
2021/12/13 10:44:29;;;;;;;0.10;0.10;;;;;;;9.68;72.41;101470.63;7362866;19;20470;-59
2021/12/13 10:47:09;;;;;;;0.08;0.08;;;;;;;9.72;71.95;101482.78;7357760;19;20026;-59
2021/12/13 10:49:39;;;;;;;0.10;0.10;;;;;;;9.74;71.92;101481.91;7362706;19;20009;-59
2021/12/13 10:52:13;;;;;;;0.10;0.10;;;;;;;9.77;71.76;101486.22;7357560;19;20090;-59
2021/12/13 10:54:44;;;;;;;0.10;0.10;;;;;;;9.79;71.94;101487.97;7361922;19;20006;-59
2021/12/13 10:57:15;;;;;;;0.00;0.00;;;;;;;9.78;71.95;101475.78;7360690;19;20010;-59
2021/12/13 10:59:41;;;;;;;0.00;0.00;;;;;;;9.83;72.16;101481.84;7364609;19;20328;-59
2021/12/13 11:02:16;;;;;;;0.10;0.10;;;;;;;9.89;72.07;101478.31;7362868;19;20010;-59
2021/12/13 11:04:57;;;;;;;0.00;0.00;;;;;;;9.92;71.98;101482.63;7361899;19;21107;-59
2021/12/13 11:07:23;;;;;;;0.00;0.00;;;;;;;9.91;71.75;101473.94;7360905;19;20017;-59
2021/12/13 11:09:51;;;;;;;0.10;0.10;;;;;;;9.82;71.45;101458.34;7365036;19;20015;-59
2021/12/13 11:12:21;;;;;;;0.03;0.03;;;;;;;9.94;71.71;101468.72;7358640;19;20372;-59
2021/12/13 11:14:50;;;;;;;0.00;0.00;;;;;;;9.99;71.90;101466.94;7361282;19;20023;-59
2021/12/13 11:17:21;;;;;;;0.00;0.00;;;;;;;10.00;71.67;101468.66;7367433;19;20373;-59
2021/12/13 11:19:50;;;;;;;0.10;0.10;;;;;;;9.96;71.58;101461.72;7363577;19;20016;-59
2021/12/13 11:22:20;;;;;;;0.00;0.00;;;;;;;10.01;71.86;101470.38;7368799;19;20078;-59
2021/12/13 11:24:50;;;;;;;0.10;0.10;;;;;;;10.09;71.77;101484.25;7367855;19;20010;-60
2021/12/13 11:27:21;;;;;;;0.00;0.00;;;;;;;10.13;71.93;101485.94;7370262;19;20026;-60
2021/12/13 11:29:50;;;;;;;0.00;0.00;;;;;;;10.17;72.09;101483.31;7364612;19;20466;-59
2021/12/13 11:32:30;;;;;;;0.10;0.10;;;;;;;10.20;71.57;101485.91;7364290;19;20085;-59
2021/12/13 11:35:07;;;;;;;0.00;0.00;;;;;;;10.27;71.50;101492.81;7363949;19;20022;-60
2021/12/13 11:38:00;;;;;;;0.00;0.00;;;;;;;10.31;71.83;101490.19;7368951;19;20015;-59
2021/12/13 11:41:03;;;;;;;0.10;0.10;;;;;;;10.36;71.40;101495.38;7261310;19;2004587;-59
2021/12/13 11:43:55;;;;;;;0.00;0.00;;;;;;;10.41;71.50;101497.94;7261797;19;2004424;-59
2021/12/13 11:46:27;;;;;;;0.10;0.10;;;;;;;10.43;71.12;101494.41;7367929;19;20025;-59
2021/12/13 11:49:30;;;;;;;0.10;0.10;;;;;;;10.47;71.40;101493.50;7364771;19;20105;-60
2021/12/13 11:52:29;;;;;;;0.10;0.10;;;;;;;10.50;71.24;101490.03;7262805;19;2004407;-60
2021/12/13 11:55:20;;;;;;;0.00;0.00;;;;;;;10.49;70.80;101494.38;7267306;19;2004641;-59
2021/12/13 11:58:16;;;;;;;0.00;0.00;;;;;;;10.57;70.94;101486.44;7366104;19;20011;-59
2021/12/13 12:01:20;;;;;;;0.00;0.00;;;;;;;10.61;70.87;101499.47;7257809;19;2004439;-59
2021/12/13 12:04:07;;;;;;;0.00;0.00;;;;;;;10.65;70.86;101500.31;7265012;19;2004289;-59
2021/12/13 12:07:09;;;;;;;0.10;0.10;;;;;;;10.69;70.84;101493.28;7365106;19;20018;-60
2021/12/13 12:10:20;;;;;;;0.00;0.00;;;;;;;10.72;70.63;101495.88;7263348;19;2004209;-59
2021/12/13 12:13:10;;;;;;;0.00;0.00;;;;;;;10.73;70.84;101501.06;7259204;19;2004598;-60